sensor_id;sensor_type;location;lat;lon;timestamp;pressure;altitude;pressure_sealevel;temperature
74043;BMP280;62384;53.600;10.040;2023-01-06T00:00:29;-2538.72;;;7.82
74043;BMP280;62384;53.600;10.040;2023-01-06T00:02:54;-2537.81;;;7.76
74043;BMP280;62384;53.600;10.040;2023-01-06T00:05:20;-2538.47;;;7.81
74043;BMP280;62384;53.600;10.040;2023-01-06T00:07:48;-2869.34;;;7.88
74043;BMP280;62384;53.600;10.040;2023-01-06T00:10:13;-2538.94;;;7.84
74043;BMP280;62384;53.600;10.040;2023-01-06T00:12:39;-2539.09;;;7.85
74043;BMP280;62384;53.600;10.040;2023-01-06T00:15:05;-2539.91;;;7.90
74043;BMP280;62384;53.600;10.040;2023-01-06T00:17:30;-2539.22;;;7.86
74043;BMP280;62384;53.600;10.040;2023-01-06T00:19:55;-2869.19;;;7.87
74043;BMP280;62384;53.600;10.040;2023-01-06T00:22:20;-2867.63;;;7.77
74043;BMP280;62384;53.600;10.040;2023-01-06T00:24:46;-3526.78;;;7.77
74043;BMP280;62384;53.600;10.040;2023-01-06T00:27:11;-3856.16;;;7.76
74043;BMP280;62384;53.600;10.040;2023-01-06T00:29:37;-4185.94;;;7.77
74043;BMP280;62384;53.600;10.040;2023-01-06T00:32:02;-4513.69;;;7.68
74043;BMP280;62384;53.600;10.040;2023-01-06T00:34:28;-4844.66;;;7.76
74043;BMP280;62384;53.600;10.040;2023-01-06T00:36:53;-4514.41;;;7.72
74043;BMP280;62384;53.600;10.040;2023-01-06T00:39:19;-4844.19;;;7.74
74043;BMP280;62384;53.600;10.040;2023-01-06T00:41:44;-4514.78;;;7.74
74043;BMP280;62384;53.600;10.040;2023-01-06T00:44:35;-4516.25;;;7.82
74043;BMP280;62384;53.600;10.040;2023-01-06T00:47:02;-4515.22;;;7.76
74043;BMP280;62384;53.600;10.040;2023-01-06T00:49:28;-4844.19;;;7.74
74043;BMP280;62384;53.600;10.040;2023-01-06T00:51:53;-4842.88;;;7.67
74043;BMP280;62384;53.600;10.040;2023-01-06T00:54:19;-4844.19;;;7.74
74043;BMP280;62384;53.600;10.040;2023-01-06T00:56:47;-4845.88;;;7.83
74043;BMP280;62384;53.600;10.040;2023-01-06T00:59:14;-4845.50;;;7.81
74043;BMP280;62384;53.600;10.040;2023-01-06T01:01:40;-4843.72;;;7.71
74043;BMP280;62384;53.600;10.040;2023-01-06T01:04:07;-4844.09;;;7.73
74043;BMP280;62384;53.600;10.040;2023-01-06T01:06:33;-5173.75;;;7.75
74043;BMP280;62384;53.600;10.040;2023-01-06T01:08:59;-5174.06;;;7.76
74043;BMP280;62384;53.600;10.040;2023-01-06T01:11:25;-5173.00;;;7.71
74043;BMP280;62384;53.600;10.040;2023-01-06T01:14:11;-5172.31;;;7.67
74043;BMP280;62384;53.600;10.040;2023-01-06T01:16:37;-5168.53;;;7.48
74043;BMP280;62384;53.600;10.040;2023-01-06T01:19:03;-4843.16;;;7.68
74043;BMP280;62384;53.600;10.040;2023-01-06T01:21:28;-5173.75;;;7.75
74043;BMP280;62384;53.600;10.040;2023-01-06T01:23:54;-5172.59;;;7.69
74043;BMP280;62384;53.600;10.040;2023-01-06T01:26:19;-5501.63;;;7.67
74043;BMP280;62384;53.600;10.040;2023-01-06T01:28:44;-5830.88;;;7.67
74043;BMP280;62384;53.600;10.040;2023-01-06T01:31:10;-5831.78;;;7.72
74043;BMP280;62384;53.600;10.040;2023-01-06T01:33:37;-6159.88;;;7.66
74043;BMP280;62384;53.600;10.040;2023-01-06T01:36:07;-6491.97;;;7.80
74043;BMP280;62384;53.600;10.040;2023-01-06T01:38:33;-6489.72;;;7.69
74043;BMP280;62384;53.600;10.040;2023-01-06T01:40:58;-6490.69;;;7.74
74043;BMP280;62384;53.600;10.040;2023-01-06T01:43:23;-6490.78;;;7.74
74043;BMP280;62384;53.600;10.040;2023-01-06T01:45:51;-6491.88;;;7.79
74043;BMP280;62384;53.600;10.040;2023-01-06T01:48:32;-6491.97;;;7.80
74043;BMP280;62384;53.600;10.040;2023-01-06T01:51:01;-6493.03;;;7.85
74043;BMP280;62384;53.600;10.040;2023-01-06T01:53:33;-6493.38;;;7.86
74043;BMP280;62384;53.600;10.040;2023-01-06T01:56:02;-6493.38;;;7.86
74043;BMP280;62384;53.600;10.040;2023-01-06T01:58:43;-6494.56;;;7.92
74043;BMP280;62384;53.600;10.040;2023-01-06T02:01:11;-6492.84;;;7.84
74043;BMP280;62384;53.600;10.040;2023-01-06T02:03:38;-6820.63;;;7.77
74043;BMP280;62384;53.600;10.040;2023-01-06T02:06:10;-7151.47;;;7.85
74043;BMP280;62384;53.600;10.040;2023-01-06T02:08:41;-7152.38;;;7.89
74043;BMP280;62384;53.600;10.040;2023-01-06T02:11:08;-6822.59;;;7.86
74043;BMP280;62384;53.600;10.040;2023-01-06T02:13:36;-6822.50;;;7.86
74043;BMP280;62384;53.600;10.040;2023-01-06T02:16:33;-6821.63;;;7.82
74043;BMP280;62384;53.600;10.040;2023-01-06T02:19:20;-7151.69;;;7.86
74043;BMP280;62384;53.600;10.040;2023-01-06T02:22:15;-7152.16;;;7.88
74043;BMP280;62384;53.600;10.040;2023-01-06T02:25:31;-7481.22;;;7.87
74043;BMP280;62384;53.600;10.040;2023-01-06T02:40:23;-7809.75;;;7.85
74043;BMP280;62384;53.600;10.040;2023-01-06T02:43:12;-7811.16;;;7.91
74043;BMP280;62384;53.600;10.040;2023-01-06T02:48:32;-8141.47;;;7.96
74043;BMP280;62384;53.600;10.040;2023-01-06T02:51:23;-8143.03;;;8.02
74043;BMP280;62384;53.600;10.040;2023-01-06T02:56:24;-8142.94;;;8.02
74043;BMP280;62384;53.600;10.040;2023-01-06T02:58:58;-7810.34;;;7.87
74043;BMP280;62384;53.600;10.040;2023-01-06T03:01:40;-8142.31;;;7.99
74043;BMP280;62384;53.600;10.040;2023-01-06T03:04:10;-8144.25;;;8.07
74043;BMP280;62384;53.600;10.040;2023-01-06T03:06:40;-8143.88;;;8.06
74043;BMP280;62384;53.600;10.040;2023-01-06T03:09:10;-8474.16;;;8.11
74043;BMP280;62384;53.600;10.040;2023-01-06T03:11:37;-8472.53;;;8.04
74043;BMP280;62384;53.600;10.040;2023-01-06T03:14:16;-8475.75;;;8.17
74043;BMP280;62384;53.600;10.040;2023-01-06T03:16:43;-8476.00;;;8.18
74043;BMP280;62384;53.600;10.040;2023-01-06T03:19:08;-8476.13;;;8.19
74043;BMP280;62384;53.600;10.040;2023-01-06T03:21:40;-8476.00;;;8.18
74043;BMP280;62384;53.600;10.040;2023-01-06T03:24:08;-8477.25;;;8.23
74043;BMP280;62384;53.600;10.040;2023-01-06T03:26:34;-8476.63;;;8.21
74043;BMP280;62384;53.600;10.040;2023-01-06T03:29:00;-8476.88;;;8.22
74043;BMP280;62384;53.600;10.040;2023-01-06T03:34:21;-8478.59;;;8.29
74043;BMP280;62384;53.600;10.040;2023-01-06T03:37:30;-8479.47;;;8.32
74043;BMP280;62384;53.600;10.040;2023-01-06T03:40:10;-8480.69;;;8.37
74043;BMP280;62384;53.600;10.040;2023-01-06T03:42:46;-8479.34;;;8.32
74043;BMP280;62384;53.600;10.040;2023-01-06T03:45:47;-8480.69;;;8.37
74043;BMP280;62384;53.600;10.040;2023-01-06T03:48:40;-8481.94;;;8.42
74043;BMP280;62384;53.600;10.040;2023-01-06T03:51:31;-8811.38;;;8.43
74043;BMP280;62384;53.600;10.040;2023-01-06T03:54:11;-8481.81;;;8.42
74043;BMP280;62384;53.600;10.040;2023-01-06T03:56:41;-8811.75;;;8.44
74043;BMP280;62384;53.600;10.040;2023-01-06T03:59:13;-8811.88;;;8.45
74043;BMP280;62384;53.600;10.040;2023-01-06T04:01:40;-9142.16;;;8.49
74043;BMP280;62384;53.600;10.040;2023-01-06T04:04:09;-9143.06;;;8.52
74043;BMP280;62384;53.600;10.040;2023-01-06T04:06:34;-8813.75;;;8.52
74043;BMP280;62384;53.600;10.040;2023-01-06T04:09:00;-9136.25;;;8.26
74043;BMP280;62384;53.600;10.040;2023-01-06T04:11:25;-9145.78;;;8.63
74043;BMP280;62384;53.600;10.040;2023-01-06T04:14:09;-9146.94;;;8.67
74043;BMP280;62384;53.600;10.040;2023-01-06T04:16:34;-9147.06;;;8.68
74043;BMP280;62384;53.600;10.040;2023-01-06T04:18:59;-9148.09;;;8.72
74043;BMP280;62384;53.600;10.040;2023-01-06T04:21:25;-9149.91;;;8.79
74043;BMP280;62384;53.600;10.040;2023-01-06T04:23:50;-9148.09;;;8.72
74043;BMP280;62384;53.600;10.040;2023-01-06T04:26:15;-9147.97;;;8.71
74043;BMP280;62384;53.600;10.040;2023-01-06T04:28:40;-9148.88;;;8.75
74043;BMP280;62384;53.600;10.040;2023-01-06T04:31:07;-9153.13;;;8.92
74043;BMP280;62384;53.600;10.040;2023-01-06T04:33:34;-9480.50;;;8.84
74043;BMP280;62384;53.600;10.040;2023-01-06T04:35:59;-9483.13;;;8.94
74043;BMP280;62384;53.600;10.040;2023-01-06T04:38:24;-9483.78;;;8.96
74043;BMP280;62384;53.600;10.040;2023-01-06T04:40:50;-9484.97;;;9.01
74043;BMP280;62384;53.600;10.040;2023-01-06T04:43:15;-9485.50;;;9.03
74043;BMP280;62384;53.600;10.040;2023-01-06T04:45:42;-9486.56;;;9.07
74043;BMP280;62384;53.600;10.040;2023-01-06T04:48:12;-9488.53;;;9.14
74043;BMP280;62384;53.600;10.040;2023-01-06T04:50:37;-9487.88;;;9.12
74043;BMP280;62384;53.600;10.040;2023-01-06T04:53:04;-9489.19;;;9.17
74043;BMP280;62384;53.600;10.040;2023-01-06T04:55:30;-9488.78;;;9.15
74043;BMP280;62384;53.600;10.040;2023-01-06T04:57:55;-9490.38;;;9.21
74043;BMP280;62384;53.600;10.040;2023-01-06T05:00:20;-9490.78;;;9.23
74043;BMP280;62384;53.600;10.040;2023-01-06T05:02:46;-9491.94;;;9.27
74043;BMP280;62384;53.600;10.040;2023-01-06T05:05:12;-9493.66;;;9.34
74043;BMP280;62384;53.600;10.040;2023-01-06T05:07:38;-9495.13;;;9.39
74043;BMP280;62384;53.600;10.040;2023-01-06T05:10:04;-9497.34;;;9.48
74043;BMP280;62384;53.600;10.040;2023-01-06T05:12:32;-9499.06;;;9.55
74043;BMP280;62384;53.600;10.040;2023-01-06T05:14:57;-9500.75;;;9.61
74043;BMP280;62384;53.600;10.040;2023-01-06T05:17:22;-9504.06;;;9.74
74043;BMP280;62384;53.600;10.040;2023-01-06T05:19:48;-9503.53;;;9.72
74043;BMP280;62384;53.600;10.040;2023-01-06T05:22:13;-9506.56;;;9.83
74043;BMP280;62384;53.600;10.040;2023-01-06T05:24:39;-9507.88;;;9.88
74043;BMP280;62384;53.600;10.040;2023-01-06T05:27:04;-9507.59;;;9.87
74043;BMP280;62384;53.600;10.040;2023-01-06T05:29:30;-9509.31;;;9.94
74043;BMP280;62384;53.600;10.040;2023-01-06T05:31:55;-9509.84;;;9.96
74043;BMP280;62384;53.600;10.040;2023-01-06T05:34:20;-9509.72;;;9.95
74043;BMP280;62384;53.600;10.040;2023-01-06T05:36:46;-9511.03;;;10.00
74043;BMP280;62384;53.600;10.040;2023-01-06T05:39:11;-9180.84;;;10.00
74043;BMP280;62384;53.600;10.040;2023-01-06T05:41:36;-9180.97;;;10.00
74043;BMP280;62384;53.600;10.040;2023-01-06T05:44:02;-9182.53;;;10.06
74043;BMP280;62384;53.600;10.040;2023-01-06T05:46:27;-9181.63;;;10.03
74043;BMP280;62384;53.600;10.040;2023-01-06T05:48:52;-9182.41;;;10.06
74043;BMP280;62384;53.600;10.040;2023-01-06T05:51:17;-9183.03;;;10.08
74043;BMP280;62384;53.600;10.040;2023-01-06T05:53:44;-9184.72;;;10.15
74043;BMP280;62384;53.600;10.040;2023-01-06T05:56:12;-9184.34;;;10.14
74043;BMP280;62384;53.600;10.040;2023-01-06T05:58:38;-9184.72;;;10.15
74043;BMP280;62384;53.600;10.040;2023-01-06T06:01:05;-8854.69;;;10.16
74043;BMP280;62384;53.600;10.040;2023-01-06T06:03:31;-8855.44;;;10.19
74043;BMP280;62384;53.600;10.040;2023-01-06T06:06:03;-8855.56;;;10.19
74043;BMP280;62384;53.600;10.040;2023-01-06T06:08:28;-8852.91;;;10.08
74043;BMP280;62384;53.600;10.040;2023-01-06T06:10:54;-8854.53;;;10.15
74043;BMP280;62384;53.600;10.040;2023-01-06T06:13:19;-8854.03;;;10.13
74043;BMP280;62384;53.600;10.040;2023-01-06T06:15:44;-8853.03;;;10.09
74043;BMP280;62384;53.600;10.040;2023-01-06T06:18:09;-8852.91;;;10.08
74043;BMP280;62384;53.600;10.040;2023-01-06T06:20:35;-8854.16;;;10.14
74043;BMP280;62384;53.600;10.040;2023-01-06T06:23:00;-8854.16;;;10.14
74043;BMP280;62384;53.600;10.040;2023-01-06T06:25:25;-8853.16;;;10.10
74043;BMP280;62384;53.600;10.040;2023-01-06T06:27:56;-8855.31;;;10.18
74043;BMP280;62384;53.600;10.040;2023-01-06T06:30:21;-8524.81;;;10.17
74043;BMP280;62384;53.600;10.040;2023-01-06T06:32:46;-8523.72;;;10.13
74043;BMP280;62384;53.600;10.040;2023-01-06T06:35:11;-8524.94;;;10.18
74043;BMP280;62384;53.600;10.040;2023-01-06T06:37:37;-8194.19;;;10.16
74043;BMP280;62384;53.600;10.040;2023-01-06T06:40:02;-8525.69;;;10.21
74043;BMP280;62384;53.600;10.040;2023-01-06T06:42:28;-8194.31;;;10.16
74043;BMP280;62384;53.600;10.040;2023-01-06T06:44:53;-8195.06;;;10.19
74043;BMP280;62384;53.600;10.040;2023-01-06T06:47:18;-7865.56;;;10.23
74043;BMP280;62384;53.600;10.040;2023-01-06T06:49:43;-7534.94;;;10.22
74043;BMP280;62384;53.600;10.040;2023-01-06T06:52:09;-7865.44;;;10.22
74043;BMP280;62384;53.600;10.040;2023-01-06T06:54:34;-7864.25;;;10.17
74043;BMP280;62384;53.600;10.040;2023-01-06T06:56:59;-7865.66;;;10.23
74043;BMP280;62384;53.600;10.040;2023-01-06T06:59:24;-7535.28;;;10.23
74043;BMP280;62384;53.600;10.040;2023-01-06T07:01:50;-7534.59;;;10.20
74043;BMP280;62384;53.600;10.040;2023-01-06T07:04:15;-7535.28;;;10.23
74043;BMP280;62384;53.600;10.040;2023-01-06T07:06:41;-7865.09;;;10.21
74043;BMP280;62384;53.600;10.040;2023-01-06T07:09:06;-7535.28;;;10.23
74043;BMP280;62384;53.600;10.040;2023-01-06T07:11:31;-7534.94;;;10.22
74043;BMP280;62384;53.600;10.040;2023-01-06T07:13:56;-7533.69;;;10.16
74043;BMP280;62384;53.600;10.040;2023-01-06T07:16:22;-7534.13;;;10.18
74043;BMP280;62384;53.600;10.040;2023-01-06T07:18:51;-7535.28;;;10.23
74043;BMP280;62384;53.600;10.040;2023-01-06T07:21:16;-7535.19;;;10.23
74043;BMP280;62384;53.600;10.040;2023-01-06T07:23:41;-7203.97;;;10.19
74043;BMP280;62384;53.600;10.040;2023-01-06T07:26:07;-7203.06;;;10.15
74043;BMP280;62384;53.600;10.040;2023-01-06T07:28:33;-7534.59;;;10.20
74043;BMP280;62384;53.600;10.040;2023-01-06T07:30:59;-7534.38;;;10.19
74043;BMP280;62384;53.600;10.040;2023-01-06T07:33:24;-7863.53;;;10.14
74043;BMP280;62384;53.600;10.040;2023-01-06T07:35:54;-7205.22;;;10.25
74043;BMP280;62384;53.600;10.040;2023-01-06T07:38:19;-7202.72;;;10.14
74043;BMP280;62384;53.600;10.040;2023-01-06T07:40:45;-7203.28;;;10.16
74043;BMP280;62384;53.600;10.040;2023-01-06T07:43:10;-7533.22;;;10.14
74043;BMP280;62384;53.600;10.040;2023-01-06T07:45:36;-7205.56;;;10.26
74043;BMP280;62384;53.600;10.040;2023-01-06T07:48:02;-7204.66;;;10.22
74043;BMP280;62384;53.600;10.040;2023-01-06T07:50:29;-6544.56;;;10.26
74043;BMP280;62384;53.600;10.040;2023-01-06T07:52:56;-6214.31;;;10.28
74043;BMP280;62384;53.600;10.040;2023-01-06T07:55:22;-6213.59;;;10.24
74043;BMP280;62384;53.600;10.040;2023-01-06T07:57:47;-6545.22;;;10.29
74043;BMP280;62384;53.600;10.040;2023-01-06T08:00:13;-6214.22;;;10.27
74043;BMP280;62384;53.600;10.040;2023-01-06T08:02:39;-6543.16;;;10.20
74043;BMP280;62384;53.600;10.040;2023-01-06T08:05:04;-6543.38;;;10.21
74043;BMP280;62384;53.600;10.040;2023-01-06T08:07:29;-6874.09;;;10.22
74043;BMP280;62384;53.600;10.040;2023-01-06T08:09:54;-6544.25;;;10.25
74043;BMP280;62384;53.600;10.040;2023-01-06T08:12:20;-6544.34;;;10.25
74043;BMP280;62384;53.600;10.040;2023-01-06T08:14:45;-6545.00;;;10.28
74043;BMP280;62384;53.600;10.040;2023-01-06T08:17:10;-6544.13;;;10.24
74043;BMP280;62384;53.600;10.040;2023-01-06T08:19:35;-6544.13;;;10.24
74043;BMP280;62384;53.600;10.040;2023-01-06T08:22:01;-6544.25;;;10.25
74043;BMP280;62384;53.600;10.040;2023-01-06T08:24:26;-6212.63;;;10.20
74043;BMP280;62384;53.600;10.040;2023-01-06T08:26:54;-5884.75;;;10.33
74043;BMP280;62384;53.600;10.040;2023-01-06T08:29:20;-5554.06;;;10.33
74043;BMP280;62384;53.600;10.040;2023-01-06T08:31:45;-5553.16;;;10.28
74043;BMP280;62384;53.600;10.040;2023-01-06T08:34:11;-5224.22;;;10.37
74043;BMP280;62384;53.600;10.040;2023-01-06T08:36:38;-5223.63;;;10.34
74043;BMP280;62384;53.600;10.040;2023-01-06T08:39:07;-5884.03;;;10.29
74043;BMP280;62384;53.600;10.040;2023-01-06T08:41:33;-5883.09;;;10.25
74043;BMP280;62384;53.600;10.040;2023-01-06T08:43:58;-6214.44;;;10.28
74043;BMP280;62384;53.600;10.040;2023-01-06T08:46:23;-5883.41;;;10.26
74043;BMP280;62384;53.600;10.040;2023-01-06T08:48:50;-6213.69;;;10.25
74043;BMP280;62384;53.600;10.040;2023-01-06T08:51:19;-6544.03;;;10.24
74043;BMP280;62384;53.600;10.040;2023-01-06T08:53:45;-6874.53;;;10.24
74043;BMP280;62384;53.600;10.040;2023-01-06T08:56:26;-7205.78;;;10.27
74043;BMP280;62384;53.600;10.040;2023-01-06T08:58:53;-7537.84;;;10.34
74043;BMP280;62384;53.600;10.040;2023-01-06T09:01:21;-7536.47;;;10.28
74043;BMP280;62384;53.600;10.040;2023-01-06T09:03:47;-6875.06;;;10.26
74043;BMP280;62384;53.600;10.040;2023-01-06T09:06:13;-6876.06;;;10.31
74043;BMP280;62384;53.600;10.040;2023-01-06T09:08:39;-7204.75;;;10.23
74043;BMP280;62384;53.600;10.040;2023-01-06T09:11:05;-7205.56;;;10.26
74043;BMP280;62384;53.600;10.040;2023-01-06T09:13:31;-7204.41;;;10.21
74043;BMP280;62384;53.600;10.040;2023-01-06T09:15:57;-6874.19;;;10.22
74043;BMP280;62384;53.600;10.040;2023-01-06T09:18:22;-6543.81;;;10.23
74043;BMP280;62384;53.600;10.040;2023-01-06T09:20:47;-5884.13;;;10.30
74043;BMP280;62384;53.600;10.040;2023-01-06T09:23:19;-5554.38;;;10.34
74043;BMP280;62384;53.600;10.040;2023-01-06T09:25:46;-5884.13;;;10.30
74043;BMP280;62384;53.600;10.040;2023-01-06T09:28:11;-5222.19;;;10.27
74043;BMP280;62384;53.600;10.040;2023-01-06T09:30:36;-5882.91;;;10.24
74043;BMP280;62384;53.600;10.040;2023-01-06T09:33:02;-6213.38;;;10.23
74043;BMP280;62384;53.600;10.040;2023-01-06T09:35:27;-5552.88;;;10.27
74043;BMP280;62384;53.600;10.040;2023-01-06T09:37:53;-5554.47;;;10.35
74043;BMP280;62384;53.600;10.040;2023-01-06T09:40:24;-5225.09;;;10.42
74043;BMP280;62384;53.600;10.040;2023-01-06T09:45:58;-5885.34;;;10.36
74043;BMP280;62384;53.600;10.040;2023-01-06T09:48:32;-5885.34;;;10.36
74043;BMP280;62384;53.600;10.040;2023-01-06T09:51:02;-5883.72;;;10.28
74043;BMP280;62384;53.600;10.040;2023-01-06T09:53:34;-6214.00;;;10.26
74043;BMP280;62384;53.600;10.040;2023-01-06T09:56:07;-6875.31;;;10.27
74043;BMP280;62384;53.600;10.040;2023-01-06T09:58:37;-7205.91;;;10.28
74043;BMP280;62384;53.600;10.040;2023-01-06T10:01:08;-7205.00;;;10.24
74043;BMP280;62384;53.600;10.040;2023-01-06T10:03:34;-7204.75;;;10.23
74043;BMP280;62384;53.600;10.040;2023-01-06T10:25:04;-4895.78;;;10.50
74043;BMP280;62384;53.600;10.040;2023-01-06T10:27:40;-5226.16;;;10.47
74043;BMP280;62384;53.600;10.040;2023-01-06T10:30:16;-4895.78;;;10.50
74043;BMP280;62384;53.600;10.040;2023-01-06T10:32:42;-4565.47;;;10.53
74043;BMP280;62384;53.600;10.040;2023-01-06T10:35:12;-4565.91;;;10.55
74043;BMP280;62384;53.600;10.040;2023-01-06T10:37:42;-4566.09;;;10.56
74043;BMP280;62384;53.600;10.040;2023-01-06T10:40:25;-4897.69;;;10.60
74043;BMP280;62384;53.600;10.040;2023-01-06T10:43:10;-5559.44;;;10.60
74043;BMP280;62384;53.600;10.040;2023-01-06T10:45:44;-5889.34;;;10.55
74043;BMP280;62384;53.600;10.040;2023-01-06T10:48:45;-6551.13;;;10.57
74043;BMP280;62384;53.600;10.040;2023-01-06T10:53:51;-7210.53;;;10.48
74043;BMP280;62384;53.600;10.040;2023-01-06T10:56:17;-7208.25;;;10.38
74043;BMP280;62384;53.600;10.040;2023-01-06T10:58:49;-7871.34;;;10.47
74043;BMP280;62384;53.600;10.040;2023-01-06T11:01:26;-8201.56;;;10.46
74043;BMP280;62384;53.600;10.040;2023-01-06T11:04:10;-8200.50;;;10.42
74043;BMP280;62384;53.600;10.040;2023-01-06T11:06:39;-8861.63;;;10.43
74043;BMP280;62384;53.600;10.040;2023-01-06T11:09:21;-8860.22;;;10.38
74043;BMP280;62384;53.600;10.040;2023-01-06T11:11:49;-8200.84;;;10.43
74043;BMP280;62384;53.600;10.040;2023-01-06T11:14:18;-8200.72;;;10.43
74043;BMP280;62384;53.600;10.040;2023-01-06T11:16:53;-8200.97;;;10.44
74043;BMP280;62384;53.600;10.040;2023-01-06T11:19:35;-7871.13;;;10.46
74043;BMP280;62384;53.600;10.040;2023-01-06T11:22:02;-6877.63;;;10.38
74043;BMP280;62384;53.600;10.040;2023-01-06T11:24:28;-5555.66;;;10.41
74043;BMP280;62384;53.600;10.040;2023-01-06T11:27:28;-5226.25;;;10.48
74043;BMP280;62384;53.600;10.040;2023-01-06T11:29:46;-2246.84;;;10.45
74043;BMP280;62384;53.600;10.040;2023-01-06T11:32:15;-2913.31;;;10.72
74043;BMP280;62384;53.600;10.040;2023-01-06T11:34:50;-266.19;;;11.08
74043;BMP280;62384;53.600;10.040;2023-01-06T11:37:37;2055.34;;;11.30
74043;BMP280;62384;53.600;10.040;2023-01-06T11:40:17;6044.19;;;11.17
74043;BMP280;62384;53.600;10.040;2023-01-06T11:42:47;9370.63;;;10.88
74043;BMP280;62384;53.600;10.040;2023-01-06T11:45:31;13698.19;;;10.65
74043;BMP280;62384;53.600;10.040;2023-01-06T11:47:58;17700.25;;;10.68
74043;BMP280;62384;53.600;10.040;2023-01-06T11:50:23;22714.41;;;10.82
74043;BMP280;62384;53.600;10.040;2023-01-06T11:52:59;22049.41;;;10.97
74043;BMP280;62384;53.600;10.040;2023-01-06T11:55:25;27750.28;;;11.26
74043;BMP280;62384;53.600;10.040;2023-01-06T11:58:09;38837.28;;;11.28
74043;BMP280;62384;53.600;10.040;2023-01-06T12:00:50;35811.00;;;11.32
74043;BMP280;62384;53.600;10.040;2023-01-06T12:03:29;44653.63;;;11.38
74043;BMP280;62384;53.600;10.040;2023-01-06T12:06:13;45333.84;;;11.22
74043;BMP280;62384;53.600;10.040;2023-01-06T12:14:12;53182.25;;;11.80
74043;BMP280;62384;53.600;10.040;2023-01-06T12:16:47;63682.41;;;12.47
74043;BMP280;62384;53.600;10.040;2023-01-06T12:19:16;64851.06;;;12.68
74043;BMP280;62384;53.600;10.040;2023-01-06T12:21:45;64578.50;;;12.28
74043;BMP280;62384;53.600;10.040;2023-01-06T12:24:14;66332.50;;;12.21
74043;BMP280;62384;53.600;10.040;2023-01-06T12:26:42;65742.09;;;12.15
74043;BMP280;62384;53.600;10.040;2023-01-06T12:29:13;67497.84;;;12.10
74043;BMP280;62384;53.600;10.040;2023-01-06T12:31:59;67706.59;;;11.90
74043;BMP280;62384;53.600;10.040;2023-01-06T12:34:31;68244.16;;;11.85
74043;BMP280;62384;53.600;10.040;2023-01-06T12:37:18;68492.31;;;11.36
74043;BMP280;62384;53.600;10.040;2023-01-06T12:39:58;65326.91;;;11.18
74043;BMP280;62384;53.600;10.040;2023-01-06T12:45:36;60641.31;;;10.55
74043;BMP280;62384;53.600;10.040;2023-01-06T12:48:14;59900.22;;;10.49
74043;BMP280;62384;53.600;10.040;2023-01-06T12:50:45;58743.16;;;10.48
74043;BMP280;62384;53.600;10.040;2023-01-06T12:53:17;56534.84;;;10.35
74043;BMP280;62384;53.600;10.040;2023-01-06T12:56:18;54728.59;;;10.32
74043;BMP280;62384;53.600;10.040;2023-01-06T13:01:50;57541.25;;;10.37
74043;BMP280;62384;53.600;10.040;2023-01-06T13:04:34;59470.44;;;10.36
74043;BMP280;62384;53.600;10.040;2023-01-06T13:07:20;61855.81;;;10.57
74043;BMP280;62384;53.600;10.040;2023-01-06T13:10:09;62223.69;;;10.63
74043;BMP280;62384;53.600;10.040;2023-01-06T13:12:49;62032.59;;;10.65
74043;BMP280;62384;53.600;10.040;2023-01-06T13:15:33;60685.47;;;10.66
74043;BMP280;62384;53.600;10.040;2023-01-06T13:20:46;63914.03;;;10.43
74043;BMP280;62384;53.600;10.040;2023-01-06T13:37:09;66558.13;;;10.22
74043;BMP280;62384;53.600;10.040;2023-01-06T13:39:48;67163.84;;;10.13
74043;BMP280;62384;53.600;10.040;2023-01-06T13:42:18;67744.59;;;10.13
74043;BMP280;62384;53.600;10.040;2023-01-06T13:44:45;68333.25;;;10.04
74043;BMP280;62384;53.600;10.040;2023-01-06T13:47:15;68393.94;;;10.12
74043;BMP280;62384;53.600;10.040;2023-01-06T13:49:41;67966.53;;;10.09
74043;BMP280;62384;53.600;10.040;2023-01-06T13:52:16;66875.03;;;10.10
74043;BMP280;62384;53.600;10.040;2023-01-06T14:00:43;65713.63;;;10.15
74043;BMP280;62384;53.600;10.040;2023-01-06T14:03:21;65941.97;;;10.10
74043;BMP280;62384;53.600;10.040;2023-01-06T14:05:49;65789.50;;;10.14
74043;BMP280;62384;53.600;10.040;2023-01-06T14:08:16;63640.91;;;10.05
74043;BMP280;62384;53.600;10.040;2023-01-06T14:10:44;63737.47;;;10.04
74043;BMP280;62384;53.600;10.040;2023-01-06T14:13:22;64236.75;;;10.05
74043;BMP280;62384;53.600;10.040;2023-01-06T14:15:54;66022.28;;;9.94
74043;BMP280;62384;53.600;10.040;2023-01-06T14:18:34;64711.13;;;10.03
74043;BMP280;62384;53.600;10.040;2023-01-06T14:21:03;67466.25;;;10.02
74043;BMP280;62384;53.600;10.040;2023-01-06T14:23:29;67396.63;;;9.96
74043;BMP280;62384;53.600;10.040;2023-01-06T14:25:55;66817.59;;;9.97
74043;BMP280;62384;53.600;10.040;2023-01-06T14:28:24;68458.16;;;9.99
74043;BMP280;62384;53.600;10.040;2023-01-06T14:30:51;68608.81;;;9.99
74043;BMP280;62384;53.600;10.040;2023-01-06T14:33:37;69758.69;;;9.92
74043;BMP280;62384;53.600;10.040;2023-01-06T14:36:14;70115.72;;;9.99
74043;BMP280;62384;53.600;10.040;2023-01-06T14:38:43;70196.47;;;9.95
74043;BMP280;62384;53.600;10.040;2023-01-06T14:41:30;69237.63;;;9.94
74043;BMP280;62384;53.600;10.040;2023-01-06T14:44:04;69254.16;;;9.92
74043;BMP280;62384;53.600;10.040;2023-01-06T14:46:37;68544.56;;;9.88
74043;BMP280;62384;53.600;10.040;2023-01-06T14:51:56;70143.09;;;9.79
74043;BMP280;62384;53.600;10.040;2023-01-06T14:54:29;70154.28;;;9.77
74043;BMP280;62384;53.600;10.040;2023-01-06T14:56:59;69877.81;;;9.79
74043;BMP280;62384;53.600;10.040;2023-01-06T14:59:25;69105.66;;;9.74
74043;BMP280;62384;53.600;10.040;2023-01-06T15:01:56;70673.22;;;9.74
74043;BMP280;62384;53.600;10.040;2023-01-06T15:04:24;70819.16;;;9.74
74043;BMP280;62384;53.600;10.040;2023-01-06T15:07:20;71643.38;;;9.73
74043;BMP280;62384;53.600;10.040;2023-01-06T15:09:48;71462.31;;;9.65
74043;BMP280;62384;53.600;10.040;2023-01-06T15:12:25;70575.13;;;9.66
74043;BMP280;62384;53.600;10.040;2023-01-06T15:14:50;70452.66;;;9.58
74043;BMP280;62384;53.600;10.040;2023-01-06T15:17:18;69912.13;;;9.61
74043;BMP280;62384;53.600;10.040;2023-01-06T15:19:45;69348.50;;;9.57
74043;BMP280;62384;53.600;10.040;2023-01-06T15:22:18;69215.88;;;9.60
74043;BMP280;62384;53.600;10.040;2023-01-06T15:24:44;68717.69;;;9.55
74043;BMP280;62384;53.600;10.040;2023-01-06T15:27:13;68552.84;;;9.54
74043;BMP280;62384;53.600;10.040;2023-01-06T15:29:49;67829.53;;;9.52
74043;BMP280;62384;53.600;10.040;2023-01-06T15:32:14;67802.81;;;9.46
74043;BMP280;62384;53.600;10.040;2023-01-06T15:34:43;67036.44;;;9.51
74043;BMP280;62384;53.600;10.040;2023-01-06T15:37:17;67967.56;;;9.47
74043;BMP280;62384;53.600;10.040;2023-01-06T15:39:44;66296.75;;;9.47